»·PEaware :: ASA0283 MROC-KLAX

ASA0283 :: MROC-KLAX

FLIGHT INFORMATION

Flight Status: Arrived
Operator:
Alaska Airlines
More flights by this operator :: More flights under this callsign
Pilot: Jessica F. (17029)
Aircraft: BOEING 737-800
(B738)
More flights by this aircraft type
Origin: MROC Juan Santamaria Intl
Costa Rica
Destination: KLAX Los Angeles Intl
United States
More flights between these airports :: More routes between these airports
Route: RAMON4 TIO RIOBA G440 CANAS/N0452F360 UG440 LIB UG436 AUR UA552 DUPLO/N0446F380 UA552 NAU UL655 PPE J93 ASUTA AMMOR OLAAA1
File this flight plan on PilotEdge
Remarks: PBN / A1B1C1D1S1S2 DOF / 171223 REG / N806SB EET / MMID0123 MMEX0158 MMTY0255 MMZT0409 KZLA0514 OPR / ASA PER / C RMK / TCAS SIMBRIEF
Altitude:
(Current/Filed)
18,000ft
Speed:
(Current/Filed)
357kts
Departed: 22-Dec-17 06:14 PM
Arrived: 23-Dec-17 12:01 AM
Distance/Time
Traveled:
2365nm/5:47
Distance/Time
To Go:
Arrived

Flight Plot

Page will automatically refresh every two minutes.

Flight plan parsing failed; only flown route is shown


Map Options




Map Legend


Flown Route
Filed Route
Departure Airport
Arrival Airport
Navaid (VOR, NDB)
Fix

Horizontal Profiles

Position Reports

Time Latitude Longitude Heading Altitude Ground
Speed
22-Dec-17 18:03 9.997783 -84.202538 340 3029ft 0kts
22-Dec-17 18:04 9.997783 -84.202538 340 3029ft 0kts
22-Dec-17 18:05 9.997783 -84.202538 340 3029ft 0kts
22-Dec-17 18:06 9.997783 -84.202538 340 3029ft 0kts
22-Dec-17 18:07 9.997783 -84.202538 340 3029ft 0kts
22-Dec-17 18:08 9.997783 -84.202538 340 3029ft 0kts
22-Dec-17 18:09 9.997783 -84.202538 340 3028ft 0kts
22-Dec-17 18:10 9.997783 -84.202538 340 3028ft 0kts
22-Dec-17 18:11 9.997783 -84.202538 340 3028ft 0kts
22-Dec-17 18:12 9.997783 -84.202538 340 3028ft 0kts
22-Dec-17 18:13 9.997783 -84.202538 340 3028ft 0kts
22-Dec-17 18:14 9.997783 -84.202538 340 3029ft 0kts
22-Dec-17 18:15 9.997292 -84.202579 30 3029ft 2kts
22-Dec-17 18:16 9.997019 -84.202914 72 3028ft 0kts
22-Dec-17 18:17 9.997019 -84.202913 72 3028ft 0kts
22-Dec-17 18:18 9.997029 -84.202884 71 3028ft 1kts
22-Dec-17 18:19 9.997938 -84.200456 78 3028ft 12kts
22-Dec-17 18:20 9.996408 -84.202105 249 3029ft 65kts
22-Dec-17 18:21 9.980743 -84.244138 249 4320ft 191kts
22-Dec-17 18:22 9.982266 -84.300651 317 5033ft 248kts
22-Dec-17 18:23 10.032534 -84.351731 306 5025ft 229kts
22-Dec-17 18:24 10.060201 -84.399957 300 6710ft 264kts
22-Dec-17 18:25 10.101093 -84.484759 297 9000ft 299kts
22-Dec-17 18:26 10.127849 -84.542789 297 10441ft 307kts
22-Dec-17 18:27 10.164117 -84.621377 298 12346ft 321kts
22-Dec-17 18:28 10.205844 -84.708921 298 14355ft 372kts
22-Dec-17 18:29 10.252977 -84.810470 297 16338ft 422kts
22-Dec-17 18:30 10.303830 -84.920050 297 17992ft 434kts
22-Dec-17 18:31 10.356568 -85.033281 297 17956ft 442kts
22-Dec-17 18:32 10.409145 -85.146379 296 17859ft 444kts
22-Dec-17 18:33 10.461659 -85.259852 297 17860ft 444kts
22-Dec-17 18:34 10.514280 -85.373479 296 17861ft 451kts
22-Dec-17 18:35 10.566844 -85.487445 297 17861ft 444kts
22-Dec-17 18:36 10.631303 -85.592573 313 17866ft 440kts
22-Dec-17 18:37 10.708319 -85.689072 311 17856ft 440kts
22-Dec-17 18:38 10.786577 -85.786583 310 17858ft 455kts
22-Dec-17 18:39 10.866284 -85.886396 309 17831ft 454kts
22-Dec-17 18:40 10.947421 -85.984375 311 17833ft 454kts
22-Dec-17 18:41 11.028725 -86.082531 310 17834ft 455kts
22-Dec-17 18:42 11.107969 -86.178575 310 17832ft 455kts
22-Dec-17 18:43 11.189228 -86.276530 310 17831ft 454kts
22-Dec-17 18:44 11.270558 -86.375126 310 17832ft 454kts
22-Dec-17 18:45 11.352075 -86.473352 311 17833ft 454kts
22-Dec-17 18:46 11.433069 -86.571402 310 17897ft 453kts
22-Dec-17 18:47 11.514450 -86.669484 311 17909ft 453kts
22-Dec-17 18:48 11.595708 -86.767614 310 17911ft 453kts
22-Dec-17 18:49 11.676877 -86.865594 312 17912ft 451kts
22-Dec-17 18:50 11.758061 -86.963303 310 17913ft 453kts
22-Dec-17 18:51 11.839049 -87.061661 310 17863ft 455kts
22-Dec-17 18:52 11.919929 -87.161132 310 17860ft 455kts
22-Dec-17 18:53 12.000231 -87.260506 310 17861ft 455kts
22-Dec-17 18:54 12.080963 -87.359862 310 17862ft 455kts
22-Dec-17 18:55 12.160834 -87.458542 310 17860ft 454kts
22-Dec-17 18:56 12.241364 -87.557741 311 17861ft 455kts
22-Dec-17 18:57 12.321649 -87.656580 310 17860ft 455kts
22-Dec-17 18:58 12.402292 -87.756068 310 17856ft 455kts
22-Dec-17 18:59 12.483390 -87.855666 310 17857ft 455kts
22-Dec-17 19:00 12.564040 -87.955174 310 17858ft 455kts
22-Dec-17 19:01 12.644423 -88.054504 311 17935ft 455kts
22-Dec-17 19:02 12.724861 -88.154660 310 17940ft 455kts
22-Dec-17 19:03 12.805415 -88.254647 311 17941ft 455kts
22-Dec-17 19:04 12.885598 -88.354243 310 17835ft 454kts
22-Dec-17 19:05 12.965982 -88.454136 311 17835ft 454kts
22-Dec-17 19:06 13.046410 -88.553841 310 17836ft 454kts
22-Dec-17 19:07 13.124163 -88.651230 309 17885ft 452kts
22-Dec-17 19:08 13.203126 -88.750177 310 17909ft 452kts
22-Dec-17 19:09 13.282990 -88.849851 311 17910ft 452kts
22-Dec-17 19:10 13.362811 -88.949359 310 17911ft 452kts
22-Dec-17 19:11 13.442534 -89.049155 309 17987ft 452kts
22-Dec-17 19:12 13.520086 -89.150634 309 18021ft 453kts
22-Dec-17 19:13 13.597968 -89.252268 310 18022ft 452kts
22-Dec-17 19:14 13.675644 -89.353663 309 18023ft 453kts
22-Dec-17 19:15 13.753302 -89.455410 308 18049ft 454kts
22-Dec-17 19:16 13.831462 -89.557634 310 18052ft 454kts
22-Dec-17 19:17 13.908939 -89.658847 310 18049ft 454kts
22-Dec-17 19:18 13.986852 -89.761044 308 18047ft 454kts
22-Dec-17 19:19 14.064462 -89.863233 308 18047ft 454kts
22-Dec-17 19:20 14.140699 -89.963969 309 18046ft 455kts
22-Dec-17 19:21 14.218699 -90.066801 309 18068ft 456kts
22-Dec-17 19:22 14.296298 -90.169209 308 18265ft 453kts
22-Dec-17 19:23 14.373517 -90.271483 308 18318ft 452kts
22-Dec-17 19:24 14.450475 -90.373262 309 18319ft 452kts
22-Dec-17 19:25 14.527963 -90.475257 309 18320ft 452kts
22-Dec-17 19:26 14.606546 -90.576070 312 18322ft 451kts
22-Dec-17 19:27 14.686622 -90.674473 310 18316ft 452kts
22-Dec-17 19:28 14.767063 -90.773978 309 18316ft 452kts
22-Dec-17 19:29 14.847559 -90.873305 311 18318ft 452kts
22-Dec-17 19:30 14.928531 -90.972824 311 18318ft 452kts
22-Dec-17 19:31 15.009499 -91.072528 310 18179ft 454kts
22-Dec-17 19:32 15.090181 -91.172838 309 17952ft 453kts
22-Dec-17 19:33 15.169649 -91.271501 310 17939ft 453kts
22-Dec-17 19:34 15.250525 -91.371535 311 17940ft 453kts
22-Dec-17 19:35 15.331218 -91.471482 310 17941ft 454kts
22-Dec-17 19:36 15.411717 -91.572273 309 17942ft 453kts
22-Dec-17 19:37 15.489295 -91.669301 310 17934ft 439kts
22-Dec-17 19:38 15.569767 -91.769515 310 17937ft 453kts
22-Dec-17 19:39 15.650322 -91.869931 309 17939ft 453kts
22-Dec-17 19:40 15.730676 -91.970495 308 17940ft 453kts
22-Dec-17 19:41 15.810477 -92.071383 309 17941ft 453kts
22-Dec-17 19:42 15.890535 -92.172362 310 17941ft 453kts
22-Dec-17 19:43 15.970678 -92.273441 309 17942ft 453kts
22-Dec-17 19:44 16.050556 -92.374544 308 17943ft 453kts
22-Dec-17 19:45 16.129144 -92.474051 308 17907ft 453kts
22-Dec-17 19:46 16.209122 -92.575208 308 17919ft 454kts
22-Dec-17 19:47 16.291679 -92.673544 312 17923ft 456kts
22-Dec-17 19:48 16.369754 -92.777009 313 17916ft 456kts
22-Dec-17 19:49 16.450240 -92.878739 309 17909ft 456kts
22-Dec-17 19:50 16.531242 -92.980482 310 17914ft 456kts
22-Dec-17 19:51 16.617456 -93.076685 318 17915ft 456kts
22-Dec-17 19:52 16.707976 -93.168775 316 17914ft 456kts
22-Dec-17 19:53 16.798825 -93.261073 315 17916ft 456kts
22-Dec-17 19:54 16.889360 -93.353328 315 17916ft 456kts
22-Dec-17 19:55 16.979968 -93.445351 316 17919ft 456kts
22-Dec-17 19:56 17.070492 -93.537012 316 17826ft 452kts
22-Dec-17 19:57 17.159850 -93.627593 315 17805ft 453kts
22-Dec-17 19:58 17.248903 -93.718054 313 17916ft 452kts
22-Dec-17 19:59 17.337306 -93.807859 312 17938ft 441kts
22-Dec-17 20:00 17.425427 -93.896978 313 17938ft 442kts
22-Dec-17 20:01 17.513732 -93.986252 312 17939ft 441kts
22-Dec-17 20:02 17.601802 -94.075640 311 17940ft 441kts
22-Dec-17 20:03 17.689685 -94.164770 312 17940ft 442kts
22-Dec-17 20:04 17.778096 -94.254066 314 17941ft 441kts
22-Dec-17 20:05 17.866736 -94.343453 313 17941ft 442kts
22-Dec-17 20:06 17.954982 -94.432855 312 17942ft 441kts
22-Dec-17 20:07 18.043182 -94.522158 313 17942ft 442kts
22-Dec-17 20:08 18.128185 -94.614426 298 17927ft 435kts
22-Dec-17 20:09 18.192442 -94.719302 299 17936ft 436kts
22-Dec-17 20:10 18.260740 -94.824614 300 17937ft 437kts
22-Dec-17 20:11 18.329368 -94.929880 302 17938ft 439kts
22-Dec-17 20:12 18.398259 -95.035136 301 17938ft 437kts
22-Dec-17 20:13 18.467078 -95.140637 300 17939ft 437kts
22-Dec-17 20:14 18.535827 -95.246235 300 17939ft 437kts
22-Dec-17 20:15 18.604273 -95.351898 301 17940ft 437kts
22-Dec-17 20:16 18.672405 -95.457654 301 17991ft 436kts
22-Dec-17 20:17 18.740378 -95.563421 300 17994ft 436kts
22-Dec-17 20:18 18.807590 -95.668320 299 17995ft 435kts
22-Dec-17 20:19 18.875431 -95.773878 301 17996ft 436kts
22-Dec-17 20:20 18.943819 -95.879793 301 17996ft 436kts
22-Dec-17 20:21 19.011942 -95.985338 300 17997ft 436kts
22-Dec-17 20:22 19.080142 -96.091308 300 17997ft 436kts
22-Dec-17 20:23 19.152483 -96.193048 318 17980ft 443kts
22-Dec-17 20:24 19.262532 -96.252469 332 17992ft 445kts
22-Dec-17 20:25 19.373592 -96.311090 332 17991ft 447kts
22-Dec-17 20:26 19.484213 -96.369859 330 17993ft 447kts
22-Dec-17 20:27 19.595132 -96.428980 331 17993ft 446kts
22-Dec-17 20:28 19.706140 -96.487894 332 17994ft 447kts
22-Dec-17 20:29 19.817254 -96.546663 332 17994ft 447kts
22-Dec-17 20:30 19.928078 -96.605482 331 17996ft 447kts
22-Dec-17 20:31 20.038354 -96.664211 331 17972ft 445kts
22-Dec-17 20:32 20.148574 -96.722711 331 17964ft 447kts
22-Dec-17 20:33 20.241956 -96.803998 306 17965ft 439kts
22-Dec-17 20:34 20.323428 -96.900999 308 17964ft 439kts
22-Dec-17 20:35 20.404700 -96.998278 309 17966ft 440kts
22-Dec-17 20:36 20.472277 -97.079322 309 17966ft 440kts
22-Dec-17 20:37 20.567057 -97.192441 308 17967ft 439kts
22-Dec-17 20:38 20.634938 -97.273593 309 17966ft 440kts
22-Dec-17 20:39 20.716055 -97.370806 308 17967ft 439kts
22-Dec-17 20:40 20.811055 -97.484275 309 17967ft 440kts
22-Dec-17 20:41 20.878869 -97.565473 310 17968ft 440kts
22-Dec-17 20:42 20.958685 -97.660570 309 17969ft 440kts
22-Dec-17 20:43 21.038684 -97.756001 308 17970ft 440kts
22-Dec-17 20:44 21.118231 -97.851083 308 17963ft 439kts
22-Dec-17 20:45 21.199768 -97.948507 308 17964ft 440kts
22-Dec-17 20:46 21.281474 -98.045754 309 17965ft 440kts
22-Dec-17 20:47 21.363262 -98.142895 309 17964ft 440kts
22-Dec-17 20:48 21.445205 -98.240465 308 17966ft 440kts
22-Dec-17 20:49 21.526908 -98.337940 308 17966ft 440kts
22-Dec-17 20:50 21.608822 -98.435371 309 17967ft 440kts
22-Dec-17 20:51 21.691079 -98.532822 310 17967ft 440kts
22-Dec-17 20:52 21.773213 -98.630263 309 17968ft 440kts
22-Dec-17 20:53 21.852998 -98.725111 308 17969ft 439kts
22-Dec-17 20:54 21.934875 -98.822449 308 17969ft 440kts
22-Dec-17 20:55 22.017311 -98.920057 309 17970ft 440kts
22-Dec-17 20:56 22.099577 -99.017241 309 17970ft 440kts
22-Dec-17 20:57 22.180290 -99.112789 308 17964ft 440kts
22-Dec-17 20:58 22.262350 -99.210137 308 17964ft 439kts
22-Dec-17 20:59 22.344784 -99.307766 309 17964ft 440kts
22-Dec-17 21:00 22.427485 -99.405287 310 17921ft 442kts
22-Dec-17 21:01 22.510342 -99.502907 309 17884ft 442kts
22-Dec-17 21:02 22.593093 -99.600696 308 17885ft 441kts
22-Dec-17 21:03 22.675597 -99.698239 308 17886ft 441kts
22-Dec-17 21:04 22.758498 -99.795919 309 17887ft 442kts
22-Dec-17 21:05 22.841536 -99.893433 310 17887ft 442kts
22-Dec-17 21:06 22.924895 -99.991492 309 17888ft 442kts
22-Dec-17 21:07 23.007914 -100.089421 308 17889ft 441kts
22-Dec-17 21:08 23.089757 -100.185710 309 17889ft 435kts
22-Dec-17 21:09 23.171063 -100.280981 309 17881ft 435kts
22-Dec-17 21:10 23.253091 -100.377085 308 17882ft 434kts
22-Dec-17 21:11 23.334860 -100.473172 308 17882ft 433kts
22-Dec-17 21:12 23.416561 -100.569080 307 17878ft 421kts
22-Dec-17 21:13 23.497381 -100.664170 307 17886ft 433kts
22-Dec-17 21:14 23.576339 -100.762263 306 17886ft 432kts
22-Dec-17 21:15 23.655427 -100.860946 306 17887ft 431kts
22-Dec-17 21:16 23.734157 -100.959174 306 17886ft 431kts
22-Dec-17 21:17 23.813473 -101.057719 307 17998ft 434kts
22-Dec-17 21:18 23.893087 -101.156362 307 18129ft 433kts
22-Dec-17 21:19 23.971735 -101.253993 306 18125ft 420kts
22-Dec-17 21:20 24.050885 -101.352556 306 18130ft 431kts
22-Dec-17 21:21 24.129463 -101.450050 307 18124ft 432kts
22-Dec-17 21:22 24.203317 -101.552073 301 18124ft 428kts
22-Dec-17 21:23 24.270423 -101.658116 300 18125ft 427kts
22-Dec-17 21:24 24.337506 -101.765473 299 18128ft 426kts
22-Dec-17 21:25 24.404193 -101.872517 299 18128ft 426kts
22-Dec-17 21:26 24.471192 -101.979720 300 18128ft 426kts
22-Dec-17 21:27 24.537653 -102.085642 300 18128ft 427kts
22-Dec-17 21:28 24.605038 -102.192982 299 18128ft 426kts
22-Dec-17 21:29 24.671828 -102.299790 299 18128ft 425kts
22-Dec-17 21:30 24.738969 -102.406996 300 18128ft 426kts
22-Dec-17 21:31 24.806319 -102.513966 301 18128ft 426kts
22-Dec-17 21:32 24.873764 -102.620979 300 18127ft 426kts
22-Dec-17 21:33 24.939798 -102.726030 299 18133ft 425kts
22-Dec-17 21:34 25.007049 -102.833150 299 18132ft 421kts
22-Dec-17 21:35 25.073788 -102.939013 300 18133ft 421kts
22-Dec-17 21:36 25.140213 -103.043970 300 18125ft 421kts
22-Dec-17 21:37 25.206078 -103.148246 301 18126ft 398kts
22-Dec-17 21:38 25.268796 -103.247862 302 18126ft 396kts
22-Dec-17 21:39 25.331788 -103.347627 302 18125ft 396kts
22-Dec-17 21:40 25.395080 -103.447373 303 18125ft 397kts
22-Dec-17 21:41 25.458353 -103.546887 303 18124ft 397kts
22-Dec-17 21:42 25.521753 -103.646867 302 18124ft 396kts
22-Dec-17 21:43 25.584002 -103.745231 302 18130ft 396kts
22-Dec-17 21:44 25.647414 -103.845174 303 18129ft 396kts
22-Dec-17 21:45 25.710882 -103.944673 304 18128ft 396kts
22-Dec-17 21:46 25.774489 -104.044316 303 18127ft 396kts
22-Dec-17 21:47 25.837943 -104.144028 303 18127ft 396kts
22-Dec-17 21:48 25.901482 -104.243955 303 18199ft 397kts
22-Dec-17 21:49 25.965344 -104.343982 304 18260ft 397kts
22-Dec-17 21:50 26.029555 -104.444110 305 18259ft 397kts
22-Dec-17 21:51 26.093474 -104.543917 304 18258ft 397kts
22-Dec-17 21:52 26.157090 -104.643529 303 18260ft 397kts
22-Dec-17 21:53 26.220147 -104.742212 303 18265ft 397kts
22-Dec-17 21:54 26.284455 -104.842388 305 18265ft 398kts
22-Dec-17 21:55 26.348815 -104.942307 305 18264ft 397kts
22-Dec-17 21:56 26.413208 -105.042437 304 18263ft 398kts
22-Dec-17 21:57 26.477525 -105.142728 304 18262ft 398kts
22-Dec-17 21:58 26.541910 -105.242908 305 18262ft 398kts
22-Dec-17 21:59 26.606649 -105.343105 306 18261ft 398kts
22-Dec-17 22:00 26.671235 -105.442957 305 18197ft 394kts
22-Dec-17 22:01 26.735785 -105.543041 305 17999ft 399kts
22-Dec-17 22:02 26.800725 -105.643809 305 17961ft 400kts
22-Dec-17 22:03 26.865031 -105.743297 306 17966ft 401kts
22-Dec-17 22:04 26.930476 -105.844065 306 17965ft 401kts
22-Dec-17 22:05 26.996097 -105.945051 306 17964ft 401kts
22-Dec-17 22:06 27.061653 -106.046253 305 18001ft 401kts
22-Dec-17 22:07 27.126413 -106.146290 307 17967ft 403kts
22-Dec-17 22:08 27.192655 -106.248100 308 17968ft 404kts
22-Dec-17 22:09 27.259495 -106.350395 308 18183ft 408kts
22-Dec-17 22:10 27.325287 -106.451309 307 18188ft 400kts
22-Dec-17 22:11 27.391313 -106.552788 307 17968ft 405kts
22-Dec-17 22:12 27.457088 -106.653737 307 18160ft 403kts
22-Dec-17 22:13 27.523087 -106.754690 308 18291ft 398kts
22-Dec-17 22:14 27.588561 -106.854471 308 18179ft 397kts
22-Dec-17 22:15 27.655348 -106.956301 308 18017ft 403kts
22-Dec-17 22:16 27.721860 -107.057962 307 18019ft 404kts
22-Dec-17 22:17 27.788741 -107.160150 308 18018ft 405kts
22-Dec-17 22:18 27.855797 -107.262089 309 18018ft 405kts
22-Dec-17 22:19 27.923101 -107.364081 309 18015ft 406kts
22-Dec-17 22:20 27.992213 -107.468979 308 18018ft 417kts
22-Dec-17 22:21 28.061261 -107.574026 307 18018ft 418kts
22-Dec-17 22:22 28.130154 -107.678625 307 18019ft 427kts
22-Dec-17 22:23 28.201019 -107.785773 308 18020ft 426kts
22-Dec-17 22:24 28.272328 -107.893265 308 18020ft 426kts
22-Dec-17 22:25 28.343504 -108.000709 308 18021ft 426kts
22-Dec-17 22:26 28.414429 -108.107979 307 18020ft 426kts
22-Dec-17 22:27 28.485748 -108.215654 308 18020ft 426kts
22-Dec-17 22:28 28.557348 -108.323211 308 18021ft 425kts
22-Dec-17 22:29 28.628899 -108.430521 309 18020ft 426kts
22-Dec-17 22:30 28.698457 -108.539553 303 18020ft 427kts
22-Dec-17 22:31 28.760473 -108.651773 302 18020ft 427kts
22-Dec-17 22:32 28.823309 -108.766681 304 18019ft 427kts
22-Dec-17 22:33 28.886100 -108.881367 303 18019ft 427kts
22-Dec-17 22:34 28.948817 -108.996183 302 18019ft 427kts
22-Dec-17 22:35 29.011489 -109.111114 302 18020ft 427kts
22-Dec-17 22:36 29.074161 -109.225645 303 18154ft 424kts
22-Dec-17 22:37 29.135957 -109.338045 304 18156ft 423kts
22-Dec-17 22:38 29.198687 -109.451928 304 18156ft 423kts
22-Dec-17 22:39 29.261354 -109.565954 303 18157ft 423kts
22-Dec-17 22:40 29.323728 -109.679534 303 18154ft 423kts
22-Dec-17 22:41 29.386530 -109.793389 304 18155ft 423kts
22-Dec-17 22:42 29.449372 -109.906776 304 18155ft 422kts
22-Dec-17 22:43 29.512385 -110.020499 303 18155ft 423kts
22-Dec-17 22:44 29.575415 -110.134554 303 18155ft 422kts
22-Dec-17 22:45 29.638481 -110.248513 304 18155ft 422kts
22-Dec-17 22:46 29.701613 -110.361999 305 18156ft 422kts
22-Dec-17 22:47 29.764923 -110.475432 305 18155ft 422kts
22-Dec-17 22:48 29.828258 -110.589013 304 18156ft 422kts
22-Dec-17 22:49 29.880956 -110.683511 305 18153ft 421kts
22-Dec-17 22:50 29.954667 -110.815926 304 18153ft 421kts
22-Dec-17 22:51 30.018289 -110.929508 305 18154ft 421kts
22-Dec-17 22:52 30.071247 -111.024135 304 18153ft 421kts
22-Dec-17 22:53 30.145115 -111.155167 304 18156ft 421kts
22-Dec-17 22:54 30.208723 -111.268620 304 18156ft 421kts
22-Dec-17 22:55 30.261939 -111.362922 304 18157ft 421kts
22-Dec-17 22:56 30.336157 -111.495080 305 18157ft 420kts
22-Dec-17 22:57 30.400117 -111.608025 306 18156ft 420kts
22-Dec-17 22:58 30.453414 -111.702593 305 18155ft 420kts
22-Dec-17 22:59 30.517651 -111.815742 305 18154ft 420kts
22-Dec-17 23:00 30.581757 -111.928786 304 18155ft 421kts
22-Dec-17 23:01 30.645918 -112.042075 304 18155ft 420kts
22-Dec-17 23:02 30.710162 -112.155338 305 18154ft 420kts
22-Dec-17 23:03 30.774683 -112.268555 306 18155ft 420kts
22-Dec-17 23:04 30.839380 -112.381685 306 18154ft 420kts
22-Dec-17 23:05 30.904001 -112.494719 305 18209ft 420kts
22-Dec-17 23:06 30.968478 -112.607713 305 18208ft 419kts
22-Dec-17 23:07 31.032553 -112.719875 306 18205ft 415kts
22-Dec-17 23:08 31.096264 -112.831084 306 18203ft 396kts
22-Dec-17 23:09 31.155265 -112.933392 304 18211ft 388kts
22-Dec-17 23:10 31.215418 -113.037719 304 18210ft 389kts
22-Dec-17 23:11 31.275744 -113.142452 303 18210ft 389kts
22-Dec-17 23:12 31.328854 -113.234463 303 18208ft 389kts
22-Dec-17 23:13 31.388790 -113.339551 301 18207ft 388kts
22-Dec-17 23:14 31.446756 -113.445657 302 18206ft 389kts
22-Dec-17 23:15 31.504841 -113.552089 303 18206ft 389kts
22-Dec-17 23:16 31.561973 -113.656488 303 18206ft 389kts
22-Dec-17 23:17 31.620338 -113.763196 302 18210ft 389kts
22-Dec-17 23:18 31.678503 -113.869679 301 18210ft 389kts
22-Dec-17 23:19 31.736826 -113.976440 301 18208ft 389kts
22-Dec-17 23:20 31.792558 -114.078077 302 18207ft 389kts
22-Dec-17 23:21 31.851092 -114.184474 303 18261ft 385kts
22-Dec-17 23:22 31.909588 -114.290413 303 18259ft 385kts
22-Dec-17 23:23 31.962425 -114.386338 303 18266ft 398kts
22-Dec-17 23:24 32.017607 -114.486529 303 18313ft 397kts
22-Dec-17 23:25 32.078057 -114.595679 304 18312ft 397kts
22-Dec-17 23:26 32.132272 -114.693918 303 18321ft 398kts
22-Dec-17 23:27 32.192871 -114.803114 303 18320ft 397kts
22-Dec-17 23:28 32.252988 -114.911166 303 19567ft 387kts
22-Dec-17 23:29 32.310174 -115.014228 302 22024ft 366kts
22-Dec-17 23:30 32.363835 -115.112271 302 24476ft 346kts
22-Dec-17 23:31 32.413575 -115.205692 302 26307ft 339kts
22-Dec-17 23:32 32.466748 -115.305441 302 26326ft 378kts
22-Dec-17 23:33 32.525323 -115.415197 302 26323ft 411kts
22-Dec-17 23:34 32.588655 -115.533516 302 26316ft 435kts
22-Dec-17 23:35 32.652172 -115.652078 301 26337ft 433kts
22-Dec-17 23:36 32.715417 -115.772479 301 26345ft 434kts
22-Dec-17 23:37 32.779354 -115.894008 302 26344ft 433kts
22-Dec-17 23:38 32.841949 -116.015895 301 26342ft 433kts
22-Dec-17 23:39 32.903299 -116.139011 300 26342ft 433kts
22-Dec-17 23:40 32.964536 -116.262202 300 26267ft 435kts
22-Dec-17 23:41 33.024895 -116.383316 300 25992ft 434kts
22-Dec-17 23:42 33.078919 -116.512434 296 25146ft 443kts
22-Dec-17 23:43 33.119442 -116.621040 295 24436ft 424kts
22-Dec-17 23:44 33.144357 -116.741589 277 22904ft 421kts
22-Dec-17 23:45 33.164824 -116.875832 281 20969ft 408kts
22-Dec-17 23:46 33.183627 -117.007025 280 19319ft 399kts
22-Dec-17 23:47 33.202149 -117.135558 280 17723ft 390kts
22-Dec-17 23:48 33.220383 -117.260646 281 16139ft 384kts
22-Dec-17 23:49 33.239221 -117.385123 282 14531ft 378kts
22-Dec-17 23:50 33.258396 -117.507513 282 13012ft 374kts
22-Dec-17 23:51 33.307925 -117.613685 307 12186ft 372kts
22-Dec-17 23:52 33.360654 -117.715784 301 11206ft 369kts
22-Dec-17 23:53 33.415679 -117.818623 302 10208ft 365kts
22-Dec-17 23:54 33.470727 -117.920180 305 9204ft 362kts
22-Dec-17 23:55 33.552063 -117.969594 353 8186ft 322kts
22-Dec-17 23:56 33.629941 -117.999136 342 7314ft 273kts
22-Dec-17 23:57 33.694484 -118.022383 343 6956ft 224kts
22-Dec-17 23:58 33.754375 -118.044190 343 6962ft 228kts
22-Dec-17 23:59 33.813709 -118.069026 337 6262ft 226kts
23-Dec-17 00:00 33.871561 -118.097034 338 5259ft 223kts
23-Dec-17 00:01 33.924692 -118.133010 325 4684ft 225kts
23-Dec-17 00:02 33.955176 -118.188754 267 3102ft 198kts
23-Dec-17 00:03 33.950870 -118.248509 264 1858ft 155kts
23-Dec-17 00:04 33.946240 -118.296081 263 1626ft 152kts
23-Dec-17 00:05 33.940984 -118.345929 262 510ft 145kts
23-Dec-17 00:06 33.936594 -118.389963 262 111ft 102kts
23-Dec-17 00:07 33.936442 -118.402174 265 110ft 15kts
23-Dec-17 00:08 33.936334 -118.403660 265 110ft 0kts
23-Dec-17 00:09 33.936960 -118.408970 352 110ft 19kts
23-Dec-17 00:10 33.938858 -118.405176 37 110ft 12kts
23-Dec-17 00:11 33.939876 -118.402466 34 110ft 0kts
23-Dec-17 00:12 33.940028 -118.402323 39 110ft 0kts
23-Dec-17 00:13 33.940031 -118.402320 39 110ft 0kts
23-Dec-17 00:14 33.940031 -118.402320 39 110ft 0kts
23-Dec-17 00:15 33.940031 -118.402320 39 110ft 0kts

Navigation Log

Ident Type
Flight plan parsing failed, navigation log unavailable